SCDD weather

Don Dobri Airport
Puerto Varas, Los Lagos Region, Chile

Public forecast

Using degrees Celsius for public forecast. Weather courtesy of forecast.io.

Closest aviation weather report (METAR) to Don Dobri Airport

Closest report is El Tepual Airport, 28.8 nm (53.4 km) WSW. Retrieved 2019/10/17 14:00 UTC (60 minutes ago):

SCTE 171400Z VRB03KT 9999 FEW020 OVC050 12/05 Q1024 NOSIG

Closest aviation forecast (TAF) to Don Dobri Airport

Closest forecast is El Tepual Airport, 28.8 nm (53.4 km) WSW. Retrieved 2019/10/17 12:00 UTC (3 hours ago):

TAF SCTE 171005Z 1712/1812 VRB03KT 9999 SCT045 BKN200 TX15/1719Z TN04/1812Z BECMG 1715/1717 15007KT SCT035 BKN070 BECMG 1719/1721 SCT045 BECMG 1720/1722 VRB03KT BKN035 BECMG 1802/1804 OVC025 TEMPO 1808/1812 3000 BR